首页
METAR-TAF:

METAR-TAF

机场 :

Taylorville Municipal Airport

Taylorville, 伊利诺伊州, 美国

纬度: 39-32-03N, 经度: 089-19-40W, 海拔: 190米

当前天气观测

该预报发布于25分钟前的06:15 UTC
风速9节,风向东转东南,有时为14节阵风,在西转西南之间变化
温度 25°C
湿度 69%
气压 1012 hPa
能見度: 16.1公里
天空无云

METAR: KTAZ 250615Z AUTO 11009G14KT 090V240 10SM CLR 25/19 A2987 RMK AO2 T02530193

时间: 01:40 (06:40 UTC)


TAF: 丢失

超过4000个机场的气象观测和天气预报(METAR&TAF报告)。

可查询的气象台以黄色和红色小点在地图上表示。

将鼠标移到小点上方,可查看气象台名称。

然后点击查看天气观测和预报。

如需切换地图:点击带黑十字的绿色按钮放大地图;点击带横线的绿色按钮缩小地图;或者点击绿色箭头查看邻近地区的地图。


METAR-TAF: